sensor_id;sensor_type;location;lat;lon;timestamp;P1;durP1;ratioP1;P2;durP2;ratioP2
35757;SDS011;21879;50.110;18.900;2022-10-16T00:05:50;20.70;;;14.50;;
35757;SDS011;21879;50.110;18.900;2022-10-16T00:16:18;17.30;;;12.80;;
35757;SDS011;21879;50.110;18.900;2022-10-16T00:26:45;17.90;;;13.40;;
35757;SDS011;21879;50.110;18.900;2022-10-16T00:37:16;21.20;;;15.20;;
35757;SDS011;21879;50.110;18.900;2022-10-16T00:47:44;25.50;;;17.50;;
35757;SDS011;21879;50.110;18.900;2022-10-16T00:58:14;24.00;;;18.00;;
35757;SDS011;21879;50.110;18.900;2022-10-16T01:08:46;18.40;;;13.70;;
35757;SDS011;21879;50.110;18.900;2022-10-16T01:19:24;19.90;;;16.80;;
35757;SDS011;21879;50.110;18.900;2022-10-16T01:30:02;25.40;;;17.00;;
35757;SDS011;21879;50.110;18.900;2022-10-16T01:40:36;26.70;;;17.20;;
35757;SDS011;21879;50.110;18.900;2022-10-16T01:51:08;21.00;;;16.00;;
35757;SDS011;21879;50.110;18.900;2022-10-16T02:01:38;21.60;;;14.60;;
35757;SDS011;21879;50.110;18.900;2022-10-16T02:12:12;21.40;;;15.90;;
35757;SDS011;21879;50.110;18.900;2022-10-16T02:22:43;18.90;;;14.10;;
35757;SDS011;21879;50.110;18.900;2022-10-16T02:33:12;19.20;;;12.60;;
35757;SDS011;21879;50.110;18.900;2022-10-16T02:43:42;18.70;;;13.80;;
35757;SDS011;21879;50.110;18.900;2022-10-16T02:54:09;22.80;;;16.00;;
35757;SDS011;21879;50.110;18.900;2022-10-16T03:04:37;15.40;;;12.30;;
35757;SDS011;21879;50.110;18.900;2022-10-16T03:25:32;12.80;;;10.40;;
35757;SDS011;21879;50.110;18.900;2022-10-16T03:35:59;12.50;;;9.50;;
35757;SDS011;21879;50.110;18.900;2022-10-16T03:46:27;11.90;;;8.20;;
35757;SDS011;21879;50.110;18.900;2022-10-16T03:56:55;13.30;;;9.70;;
35757;SDS011;21879;50.110;18.900;2022-10-16T04:07:22;13.60;;;9.80;;
35757;SDS011;21879;50.110;18.900;2022-10-16T04:17:50;14.60;;;10.60;;
35757;SDS011;21879;50.110;18.900;2022-10-16T04:38:44;11.70;;;9.00;;
35757;SDS011;21879;50.110;18.900;2022-10-16T04:49:12;13.70;;;9.70;;
35757;SDS011;21879;50.110;18.900;2022-10-16T04:59:39;13.80;;;9.40;;
35757;SDS011;21879;50.110;18.900;2022-10-16T05:10:07;15.30;;;11.00;;
35757;SDS011;21879;50.110;18.900;2022-10-16T05:20:35;15.60;;;9.00;;
35757;SDS011;21879;50.110;18.900;2022-10-16T05:31:05;13.50;;;9.50;;
35757;SDS011;21879;50.110;18.900;2022-10-16T05:41:33;11.20;;;8.80;;
35757;SDS011;21879;50.110;18.900;2022-10-16T05:52:01;11.30;;;7.80;;
35757;SDS011;21879;50.110;18.900;2022-10-16T06:02:29;11.30;;;8.10;;
35757;SDS011;21879;50.110;18.900;2022-10-16T06:12:56;13.30;;;9.20;;
35757;SDS011;21879;50.110;18.900;2022-10-16T06:23:24;13.60;;;9.20;;
35757;SDS011;21879;50.110;18.900;2022-10-16T06:33:54;12.90;;;9.70;;
35757;SDS011;21879;50.110;18.900;2022-10-16T06:44:22;15.10;;;10.20;;
35757;SDS011;21879;50.110;18.900;2022-10-16T06:54:50;16.10;;;10.60;;
35757;SDS011;21879;50.110;18.900;2022-10-16T07:15:44;16.40;;;12.30;;
35757;SDS011;21879;50.110;18.900;2022-10-16T07:26:11;13.70;;;11.50;;
35757;SDS011;21879;50.110;18.900;2022-10-16T07:36:40;15.30;;;12.00;;
35757;SDS011;21879;50.110;18.900;2022-10-16T07:47:08;15.00;;;10.30;;
35757;SDS011;21879;50.110;18.900;2022-10-16T07:57:36;13.70;;;10.00;;
35757;SDS011;21879;50.110;18.900;2022-10-16T08:08:03;16.50;;;11.10;;
35757;SDS011;21879;50.110;18.900;2022-10-16T08:28:57;12.30;;;8.10;;
35757;SDS011;21879;50.110;18.900;2022-10-16T08:49:56;15.20;;;9.30;;
35757;SDS011;21879;50.110;18.900;2022-10-16T09:00:26;12.10;;;8.80;;
35757;SDS011;21879;50.110;18.900;2022-10-16T09:10:56;11.60;;;8.50;;
35757;SDS011;21879;50.110;18.900;2022-10-16T09:21:30;12.70;;;8.70;;
35757;SDS011;21879;50.110;18.900;2022-10-16T09:32:07;9.80;;;7.60;;
35757;SDS011;21879;50.110;18.900;2022-10-16T09:42:38;10.30;;;7.80;;
35757;SDS011;21879;50.110;18.900;2022-10-16T09:53:08;9.50;;;7.10;;
35757;SDS011;21879;50.110;18.900;2022-10-16T10:03:38;10.40;;;7.00;;
35757;SDS011;21879;50.110;18.900;2022-10-16T10:14:12;14.70;;;8.70;;
35757;SDS011;21879;50.110;18.900;2022-10-16T10:24:46;12.50;;;6.70;;
35757;SDS011;21879;50.110;18.900;2022-10-16T10:35:24;10.90;;;7.80;;
35757;SDS011;21879;50.110;18.900;2022-10-16T10:46:07;11.40;;;8.90;;
35757;SDS011;21879;50.110;18.900;2022-10-16T10:56:44;9.40;;;8.20;;
35757;SDS011;21879;50.110;18.900;2022-10-16T11:07:18;10.40;;;7.30;;
35757;SDS011;21879;50.110;18.900;2022-10-16T11:17:52;9.20;;;7.10;;
35757;SDS011;21879;50.110;18.900;2022-10-16T11:28:25;10.70;;;8.50;;
35757;SDS011;21879;50.110;18.900;2022-10-16T11:39:00;10.90;;;7.00;;
35757;SDS011;21879;50.110;18.900;2022-10-16T11:49:37;11.60;;;8.70;;
35757;SDS011;21879;50.110;18.900;2022-10-16T12:00:08;12.10;;;8.30;;
35757;SDS011;21879;50.110;18.900;2022-10-16T12:10:44;9.40;;;7.80;;
35757;SDS011;21879;50.110;18.900;2022-10-16T12:21:13;11.10;;;8.60;;
35757;SDS011;21879;50.110;18.900;2022-10-16T12:31:44;11.10;;;7.80;;
35757;SDS011;21879;50.110;18.900;2022-10-16T12:42:22;8.70;;;6.90;;
35757;SDS011;21879;50.110;18.900;2022-10-16T12:52:58;11.30;;;8.60;;
35757;SDS011;21879;50.110;18.900;2022-10-16T13:03:30;10.50;;;7.90;;
35757;SDS011;21879;50.110;18.900;2022-10-16T13:14:18;10.20;;;8.50;;
35757;SDS011;21879;50.110;18.900;2022-10-16T13:25:02;13.90;;;8.90;;
35757;SDS011;21879;50.110;18.900;2022-10-16T13:35:46;12.10;;;8.80;;
35757;SDS011;21879;50.110;18.900;2022-10-16T13:46:19;10.10;;;7.80;;
35757;SDS011;21879;50.110;18.900;2022-10-16T13:56:49;13.70;;;9.40;;
35757;SDS011;21879;50.110;18.900;2022-10-16T14:07:32;10.80;;;8.30;;
35757;SDS011;21879;50.110;18.900;2022-10-16T14:18:02;10.80;;;8.50;;
35757;SDS011;21879;50.110;18.900;2022-10-16T14:28:30;12.90;;;8.90;;
35757;SDS011;21879;50.110;18.900;2022-10-16T14:39:03;12.70;;;9.00;;
35757;SDS011;21879;50.110;18.900;2022-10-16T14:49:32;14.50;;;8.80;;
35757;SDS011;21879;50.110;18.900;2022-10-16T15:00:00;11.90;;;8.10;;
35757;SDS011;21879;50.110;18.900;2022-10-16T15:10:28;13.20;;;9.10;;
35757;SDS011;21879;50.110;18.900;2022-10-16T15:20:57;14.90;;;10.70;;
35757;SDS011;21879;50.110;18.900;2022-10-16T15:31:24;13.10;;;10.10;;
35757;SDS011;21879;50.110;18.900;2022-10-16T15:41:52;10.50;;;8.70;;
35757;SDS011;21879;50.110;18.900;2022-10-16T15:52:20;13.70;;;10.20;;
35757;SDS011;21879;50.110;18.900;2022-10-16T16:02:50;14.30;;;9.70;;
35757;SDS011;21879;50.110;18.900;2022-10-16T16:13:19;11.90;;;8.80;;
35757;SDS011;21879;50.110;18.900;2022-10-16T16:23:47;12.10;;;10.00;;
35757;SDS011;21879;50.110;18.900;2022-10-16T16:34:14;14.50;;;9.90;;
35757;SDS011;21879;50.110;18.900;2022-10-16T16:44:43;15.00;;;9.70;;
35757;SDS011;21879;50.110;18.900;2022-10-16T16:55:10;12.70;;;8.70;;
35757;SDS011;21879;50.110;18.900;2022-10-16T17:05:38;12.00;;;9.10;;
35757;SDS011;21879;50.110;18.900;2022-10-16T17:16:06;17.80;;;13.10;;
35757;SDS011;21879;50.110;18.900;2022-10-16T17:26:34;49.20;;;34.20;;
35757;SDS011;21879;50.110;18.900;2022-10-16T17:37:04;61.90;;;49.70;;
35757;SDS011;21879;50.110;18.900;2022-10-16T17:47:35;49.60;;;40.30;;
35757;SDS011;21879;50.110;18.900;2022-10-16T17:58:05;24.00;;;17.30;;
35757;SDS011;21879;50.110;18.900;2022-10-16T18:08:34;21.90;;;16.70;;
35757;SDS011;21879;50.110;18.900;2022-10-16T18:19:01;23.60;;;19.30;;
35757;SDS011;21879;50.110;18.900;2022-10-16T18:29:30;19.70;;;16.70;;
35757;SDS011;21879;50.110;18.900;2022-10-16T18:39:57;14.70;;;12.40;;
35757;SDS011;21879;50.110;18.900;2022-10-16T18:50:25;22.10;;;17.90;;
35757;SDS011;21879;50.110;18.900;2022-10-16T19:00:52;24.90;;;19.00;;
35757;SDS011;21879;50.110;18.900;2022-10-16T19:21:47;17.50;;;14.40;;
35757;SDS011;21879;50.110;18.900;2022-10-16T19:32:19;22.90;;;16.90;;
35757;SDS011;21879;50.110;18.900;2022-10-16T19:53:13;27.70;;;16.90;;
35757;SDS011;21879;50.110;18.900;2022-10-16T20:14:08;18.40;;;13.50;;
35757;SDS011;21879;50.110;18.900;2022-10-16T20:24:35;22.10;;;17.20;;
35757;SDS011;21879;50.110;18.900;2022-10-16T20:35:04;25.20;;;19.10;;
35757;SDS011;21879;50.110;18.900;2022-10-16T20:45:32;22.10;;;16.60;;
35757;SDS011;21879;50.110;18.900;2022-10-16T20:56:00;24.00;;;16.60;;
35757;SDS011;21879;50.110;18.900;2022-10-16T21:06:29;28.50;;;19.70;;
35757;SDS011;21879;50.110;18.900;2022-10-16T21:16:59;26.70;;;21.00;;
35757;SDS011;21879;50.110;18.900;2022-10-16T21:27:26;26.60;;;19.20;;
35757;SDS011;21879;50.110;18.900;2022-10-16T21:37:54;25.10;;;17.60;;
35757;SDS011;21879;50.110;18.900;2022-10-16T21:48:21;32.60;;;24.30;;
35757;SDS011;21879;50.110;18.900;2022-10-16T21:58:49;38.10;;;30.00;;
35757;SDS011;21879;50.110;18.900;2022-10-16T22:09:17;48.10;;;34.10;;
35757;SDS011;21879;50.110;18.900;2022-10-16T22:30:11;46.70;;;32.10;;
35757;SDS011;21879;50.110;18.900;2022-10-16T22:51:05;42.20;;;30.90;;
35757;SDS011;21879;50.110;18.900;2022-10-16T23:01:40;31.40;;;24.80;;
35757;SDS011;21879;50.110;18.900;2022-10-16T23:22:34;19.90;;;14.40;;
35757;SDS011;21879;50.110;18.900;2022-10-16T23:33:02;28.30;;;18.90;;
35757;SDS011;21879;50.110;18.900;2022-10-16T23:43:29;27.70;;;19.70;;
35757;SDS011;21879;50.110;18.900;2022-10-16T23:53:57;32.80;;;22.60;;
